createdAt,value
2022-09-21T00:01:19.708Z,2.83
2022-09-21T00:03:46.728Z,2.80
2022-09-21T00:06:15.143Z,2.60
2022-09-21T00:08:42.640Z,2.57
2022-09-21T00:11:12.207Z,2.47
2022-09-21T00:13:39.414Z,2.43
2022-09-21T00:16:07.349Z,2.70
2022-09-21T00:18:35.308Z,2.63
2022-09-21T00:21:06.295Z,2.20
2022-09-21T00:23:34.712Z,2.60
2022-09-21T00:26:22.272Z,2.50
2022-09-21T00:28:54.126Z,2.73
2022-09-21T00:31:21.591Z,3.10
2022-09-21T00:33:48.387Z,2.13
2022-09-21T00:36:19.397Z,2.57
2022-09-21T00:38:49.672Z,2.43
2022-09-21T00:41:16.562Z,2.97
2022-09-21T00:43:46.503Z,2.73
2022-09-21T00:46:22.784Z,2.50
2022-09-21T00:48:49.758Z,2.50
2022-09-21T00:51:17.041Z,2.80
2022-09-21T00:53:43.975Z,2.80
2022-09-21T00:56:11.184Z,3.00
2022-09-21T00:58:43.684Z,3.03
2022-09-21T01:01:12.256Z,2.80
2022-09-21T01:03:39.467Z,2.40
2022-09-21T01:06:06.402Z,2.70
2022-09-21T01:08:34.603Z,2.80
2022-09-21T01:11:08.472Z,2.83
2022-09-21T01:13:55.585Z,3.23
2022-09-21T01:16:27.258Z,2.50
2022-09-21T01:19:14.349Z,2.70
2022-09-21T01:22:03.009Z,3.30
2022-09-21T01:24:38.927Z,2.70
2022-09-21T01:27:24.615Z,2.57
2022-09-21T01:30:02.882Z,3.23
2022-09-21T01:32:36.272Z,2.80
2022-09-21T01:35:06.878Z,3.80
2022-09-21T01:37:39.598Z,3.53
2022-09-21T01:40:11.252Z,3.40
2022-09-21T01:42:40.411Z,4.17
2022-09-21T01:45:08.284Z,5.03
2022-09-21T01:47:37.804Z,6.40
2022-09-21T01:50:06.745Z,8.10
2022-09-21T01:52:42.406Z,9.00
2022-09-21T01:55:32.828Z,9.70
2022-09-21T01:58:02.436Z,9.57
2022-09-21T02:00:30.990Z,9.43
2022-09-21T02:03:05.681Z,9.33
2022-09-21T02:05:32.652Z,8.63
2022-09-21T02:08:00.280Z,8.83
2022-09-21T02:10:31.518Z,8.03
2022-09-21T02:13:01.204Z,7.80
2022-09-21T02:15:37.576Z,7.17
2022-09-21T02:18:04.620Z,7.03
2022-09-21T02:20:34.106Z,6.97
2022-09-21T02:23:00.924Z,6.43
2022-09-21T02:25:36.223Z,6.00
2022-09-21T02:28:16.494Z,6.17
2022-09-21T02:30:48.146Z,6.17
2022-09-21T02:33:19.994Z,6.47
2022-09-21T02:35:46.812Z,6.43
2022-09-21T02:38:33.622Z,7.03
2022-09-21T02:41:20.053Z,6.80
2022-09-21T02:43:53.106Z,6.47
2022-09-21T02:46:24.342Z,6.70
2022-09-21T02:48:54.276Z,5.77
2022-09-21T02:51:23.206Z,6.13
2022-09-21T02:53:52.999Z,6.80
2022-09-21T02:56:20.738Z,6.67
2022-09-21T02:58:50.082Z,6.83
2022-09-21T03:01:17.767Z,6.07
2022-09-21T03:03:44.990Z,6.63
2022-09-21T03:06:11.920Z,6.63
2022-09-21T03:08:38.783Z,6.17
2022-09-21T03:11:05.660Z,5.90
2022-09-21T03:13:32.831Z,6.27
2022-09-21T03:16:01.373Z,6.13
2022-09-21T03:18:28.463Z,6.67
2022-09-21T03:20:55.516Z,6.50
2022-09-21T03:23:22.373Z,6.20
2022-09-21T03:25:49.164Z,6.03
2022-09-21T03:28:16.441Z,7.07
2022-09-21T03:30:43.408Z,6.70
2022-09-21T03:33:11.105Z,6.30
2022-09-21T03:35:38.071Z,6.40
2022-09-21T03:38:05.014Z,6.40
2022-09-21T03:40:32.038Z,6.13
2022-09-21T03:42:58.950Z,5.73
2022-09-21T03:45:27.613Z,5.73
2022-09-21T03:47:58.172Z,6.33
2022-09-21T03:50:28.879Z,6.67
2022-09-21T03:52:58.829Z,6.87
2022-09-21T03:55:25.986Z,8.17
2022-09-21T03:57:52.758Z,7.10
2022-09-21T04:00:19.708Z,8.00
2022-09-21T04:02:46.564Z,7.73
2022-09-21T04:05:15.079Z,9.20
2022-09-21T04:07:42.500Z,8.17
2022-09-21T04:10:13.211Z,8.27
2022-09-21T04:12:43.487Z,8.77
2022-09-21T04:15:14.494Z,8.47
2022-09-21T04:17:41.391Z,9.40
2022-09-21T04:20:08.996Z,8.27
2022-09-21T04:22:41.137Z,8.13
2022-09-21T04:25:10.328Z,8.30
2022-09-21T04:27:37.121Z,8.03
2022-09-21T04:30:04.885Z,8.00
2022-09-21T04:32:31.869Z,9.10
2022-09-21T04:34:58.706Z,10.20
2022-09-21T04:37:25.588Z,9.37
2022-09-21T04:39:52.443Z,8.70
2022-09-21T04:42:19.298Z,9.40
2022-09-21T04:44:46.728Z,7.97
2022-09-21T04:47:13.477Z,7.33
2022-09-21T04:49:40.371Z,7.73
2022-09-21T04:52:07.120Z,8.37
2022-09-21T04:54:34.012Z,8.27
2022-09-21T04:57:00.869Z,7.57
2022-09-21T04:59:27.849Z,8.57
2022-09-21T05:01:54.602Z,9.73
2022-09-21T05:04:21.475Z,8.50
2022-09-21T05:06:48.270Z,7.83
2022-09-21T05:09:33.693Z,8.50
2022-09-21T05:12:00.682Z,8.60
2022-09-21T05:14:27.468Z,7.77
2022-09-21T05:16:54.382Z,8.93
2022-09-21T05:19:21.248Z,8.07
2022-09-21T05:21:48.147Z,7.60
2022-09-21T05:24:15.001Z,9.13
2022-09-21T05:26:42.240Z,9.43
2022-09-21T05:29:09.288Z,8.90
2022-09-21T05:31:41.587Z,8.67
2022-09-21T05:34:25.063Z,8.57
2022-09-21T05:36:57.200Z,9.63
2022-09-21T05:39:24.181Z,8.30
2022-09-21T05:41:51.119Z,8.43
2022-09-21T05:44:18.420Z,8.07
2022-09-21T05:46:52.736Z,7.70
2022-09-21T05:49:26.075Z,8.13
2022-09-21T05:51:58.870Z,6.90
2022-09-21T05:54:39.005Z,6.67
2022-09-21T05:57:11.203Z,7.63
2022-09-21T06:00:01.331Z,6.77
2022-09-21T06:02:34.373Z,7.73
2022-09-21T06:05:01.847Z,7.30
2022-09-21T06:07:28.643Z,6.63
2022-09-21T06:09:55.608Z,7.70
2022-09-21T06:12:22.481Z,6.63
2022-09-21T06:14:49.393Z,7.23
2022-09-21T06:17:16.567Z,6.77
2022-09-21T06:19:43.424Z,6.57
2022-09-21T06:22:10.279Z,7.20
2022-09-21T06:24:37.100Z,6.87
2022-09-21T06:27:04.037Z,7.40
2022-09-21T06:29:30.813Z,7.50
2022-09-21T06:31:57.755Z,8.03
2022-09-21T06:34:24.619Z,7.03
2022-09-21T06:36:51.389Z,8.10
2022-09-21T06:39:18.388Z,7.50
2022-09-21T06:41:45.154Z,6.63
2022-09-21T06:44:12.086Z,7.27
2022-09-21T06:46:38.878Z,6.63
2022-09-21T06:49:05.851Z,6.17
2022-09-21T06:51:32.736Z,6.87
2022-09-21T06:53:59.776Z,6.53
2022-09-21T06:56:26.646Z,7.00
2022-09-21T06:58:53.575Z,6.67
2022-09-21T07:01:20.939Z,5.90
2022-09-21T07:03:51.641Z,7.43
2022-09-21T07:06:18.955Z,5.90
2022-09-21T07:11:32.857Z,6.67
2022-09-21T07:13:59.972Z,5.93
2022-09-21T07:16:28.232Z,6.13
2022-09-21T07:18:55.205Z,5.00
2022-09-21T07:21:22.367Z,6.70
2022-09-21T07:23:49.240Z,8.53
2022-09-21T07:26:16.326Z,7.80
2022-09-21T07:28:43.084Z,7.60
2022-09-21T07:31:11.145Z,8.70
2022-09-21T07:33:38.346Z,8.20
2022-09-21T07:36:13.048Z,6.60
2022-09-21T07:38:41.372Z,5.50
2022-09-21T07:41:08.706Z,5.20
2022-09-21T07:43:35.657Z,5.13
2022-09-21T07:46:02.510Z,6.73
2022-09-21T07:48:29.620Z,5.17
2022-09-21T07:51:00.759Z,5.43
2022-09-21T07:53:27.586Z,5.50
2022-09-21T07:56:00.526Z,3.53
2022-09-21T07:58:45.693Z,4.80
2022-09-21T08:01:13.226Z,4.10
2022-09-21T08:03:40.060Z,4.67
2022-09-21T08:06:07.799Z,5.23
2022-09-21T08:08:34.619Z,5.60
2022-09-21T08:11:05.635Z,6.93
2022-09-21T08:13:32.738Z,6.80
2022-09-21T08:16:00.075Z,7.40
2022-09-21T08:18:27.298Z,7.83
2022-09-21T08:20:57.435Z,8.33
2022-09-21T08:23:24.527Z,6.83
2022-09-21T08:25:51.476Z,7.63
2022-09-21T08:28:18.741Z,6.80
2022-09-21T08:30:45.517Z,8.27
2022-09-21T08:33:12.389Z,8.93
2022-09-21T08:35:39.185Z,7.97
2022-09-21T08:38:06.557Z,8.43
2022-09-21T08:40:34.414Z,8.57
2022-09-21T08:43:04.286Z,8.07
2022-09-21T08:45:35.971Z,7.70
2022-09-21T08:48:05.223Z,8.03
2022-09-21T08:50:41.270Z,9.10
2022-09-21T08:53:11.637Z,7.93
2022-09-21T08:55:38.453Z,8.80
2022-09-21T08:58:12.570Z,9.33
2022-09-21T09:00:41.026Z,7.87
2022-09-21T09:03:19.096Z,7.13
2022-09-21T09:05:55.288Z,7.50
2022-09-21T09:08:28.295Z,7.77
2022-09-21T09:11:10.162Z,7.57
2022-09-21T09:13:46.077Z,7.63
2022-09-21T09:16:15.719Z,10.67
2022-09-21T09:18:49.816Z,9.30
2022-09-21T09:21:29.074Z,8.03
2022-09-21T09:24:03.915Z,8.00
2022-09-21T09:26:34.342Z,7.73
2022-09-21T09:29:03.179Z,7.17
2022-09-21T09:31:32.429Z,7.30
2022-09-21T09:33:59.447Z,7.67
2022-09-21T09:36:53.902Z,7.80
2022-09-21T09:39:16.907Z,6.70
2022-09-21T09:41:52.987Z,7.10
2022-09-21T09:44:31.989Z,6.70
2022-09-21T09:46:58.880Z,7.47
2022-09-21T09:49:54.542Z,7.63
2022-09-21T09:52:22.413Z,6.90
2022-09-21T09:54:49.220Z,7.20
2022-09-21T09:57:21.015Z,7.33
2022-09-21T09:59:54.849Z,6.20
2022-09-21T10:02:25.856Z,6.40
2022-09-21T10:05:13.766Z,7.03
2022-09-21T10:07:40.679Z,6.20
2022-09-21T10:10:27.843Z,6.27
2022-09-21T10:12:55.478Z,6.23
2022-09-21T10:15:24.379Z,6.03
2022-09-21T10:18:00.585Z,6.03
2022-09-21T10:20:27.588Z,6.33
2022-09-21T10:22:55.807Z,5.77
2022-09-21T10:25:22.886Z,5.47
2022-09-21T10:27:51.140Z,5.27
2022-09-21T10:30:44.689Z,6.20
2022-09-21T10:33:21.866Z,5.53
2022-09-21T10:35:50.558Z,4.80
2022-09-21T10:38:22.482Z,5.37
2022-09-21T10:40:50.422Z,5.13
2022-09-21T10:43:24.134Z,5.37
2022-09-21T10:45:55.941Z,4.47
2022-09-21T10:48:24.299Z,5.63
2022-09-21T10:50:51.829Z,5.60
2022-09-21T10:53:22.636Z,5.40
2022-09-21T10:56:11.890Z,4.90
2022-09-21T10:59:02.067Z,5.67
2022-09-21T11:01:29.949Z,4.40
2022-09-21T11:04:06.510Z,5.30
2022-09-21T11:06:45.081Z,4.20
2022-09-21T11:09:20.941Z,4.13
2022-09-21T11:11:51.013Z,4.60
2022-09-21T11:14:20.665Z,3.80
2022-09-21T11:17:01.859Z,4.33
2022-09-21T11:19:35.990Z,3.03
2022-09-21T11:22:08.922Z,2.40
2022-09-21T11:24:48.329Z,3.77
2022-09-21T11:27:18.339Z,2.87
2022-09-21T11:30:04.038Z,3.57
2022-09-21T11:32:38.935Z,3.40
2022-09-21T11:35:11.535Z,3.80
2022-09-21T11:37:41.162Z,3.10
2022-09-21T11:40:17.087Z,2.80
2022-09-21T11:42:57.080Z,3.07
2022-09-21T11:45:33.202Z,3.13
2022-09-21T11:48:26.448Z,2.73
2022-09-21T11:50:53.210Z,2.80
2022-09-21T11:53:56.808Z,2.90
2022-09-21T11:56:27.170Z,2.47
2022-09-21T11:59:13.314Z,2.87
2022-09-21T12:01:54.723Z,3.03
2022-09-21T12:04:28.266Z,2.43
2022-09-21T12:07:04.179Z,2.60
2022-09-21T12:09:40.227Z,2.37
2022-09-21T12:12:13.043Z,2.90
2022-09-21T12:14:46.387Z,2.60
2022-09-21T12:17:13.250Z,3.20
2022-09-21T12:19:52.034Z,3.43
2022-09-21T12:22:22.170Z,3.33
2022-09-21T12:24:51.674Z,2.93
2022-09-21T12:27:24.833Z,3.83
2022-09-21T12:29:54.258Z,3.30
2022-09-21T12:32:39.676Z,3.43
2022-09-21T12:35:10.041Z,2.70
2022-09-21T12:37:58.870Z,2.33
2022-09-21T12:40:38.364Z,2.60
2022-09-21T12:43:23.574Z,2.70
2022-09-21T12:46:09.220Z,1.70
2022-09-21T12:48:39.774Z,1.70
2022-09-21T12:51:32.989Z,1.70
2022-09-21T12:54:01.739Z,1.70
2022-09-21T12:56:53.902Z,2.30
2022-09-21T12:59:29.994Z,2.20
2022-09-21T13:01:57.731Z,2.97
2022-09-21T13:04:44.948Z,2.50
2022-09-21T13:07:17.856Z,3.00
2022-09-21T13:09:46.419Z,1.27
2022-09-21T13:12:18.462Z,1.00
2022-09-21T13:14:47.205Z,2.13
2022-09-21T13:17:32.959Z,1.57
2022-09-21T13:20:05.643Z,1.40
2022-09-21T13:22:33.815Z,1.80
2022-09-21T13:25:06.494Z,1.70
2022-09-21T13:27:51.754Z,1.70
2022-09-21T13:30:28.236Z,1.73
2022-09-21T13:32:55.937Z,1.37
2022-09-21T13:35:41.266Z,1.10
2022-09-21T13:38:23.390Z,1.67
2022-09-21T13:40:57.666Z,1.70
2022-09-21T13:43:25.168Z,1.80
2022-09-21T13:45:54.155Z,2.00
2022-09-21T13:48:29.741Z,2.50
2022-09-21T13:50:58.545Z,1.30
2022-09-21T13:53:29.990Z,1.70
2022-09-21T13:56:23.084Z,2.00
2022-09-21T13:58:52.534Z,3.50
2022-09-21T14:01:45.758Z,3.40
2022-09-21T14:04:18.268Z,2.40
2022-09-21T14:06:47.568Z,2.53
2022-09-21T14:09:28.738Z,2.50
2022-09-21T14:11:58.062Z,2.60
2022-09-21T14:14:28.806Z,2.20
2022-09-21T14:16:55.959Z,2.33
2022-09-21T14:19:23.251Z,5.47
2022-09-21T14:22:05.660Z,3.27
2022-09-21T14:24:36.348Z,4.20
2022-09-21T14:27:15.623Z,2.80
2022-09-21T14:29:53.226Z,3.63
2022-09-21T14:32:23.709Z,3.53
2022-09-21T14:34:51.795Z,4.13
2022-09-21T14:37:27.368Z,3.53
2022-09-21T14:39:54.842Z,4.13
2022-09-21T14:42:26.366Z,3.60
2022-09-21T14:44:54.164Z,2.90
2022-09-21T14:47:28.721Z,1.47
2022-09-21T14:50:11.753Z,1.03
2022-09-21T14:52:50.180Z,1.10
2022-09-21T14:55:20.882Z,1.77
2022-09-21T14:57:48.536Z,2.23
2022-09-21T15:00:26.976Z,1.00
2022-09-21T15:03:05.109Z,0.70
2022-09-21T15:05:43.939Z,1.30
2022-09-21T15:08:52.190Z,1.07
2022-09-21T15:11:26.259Z,1.83
2022-09-21T15:14:13.347Z,2.73
2022-09-21T15:16:44.156Z,0.90
2022-09-21T15:19:23.456Z,1.00
2022-09-21T15:22:10.672Z,0.80
2022-09-21T15:24:37.610Z,1.00
2022-09-21T15:27:04.359Z,1.03
2022-09-21T15:29:31.931Z,1.10
2022-09-21T15:31:59.979Z,1.43
2022-09-21T15:34:26.903Z,0.97
2022-09-21T15:36:53.821Z,8.27
2022-09-21T15:39:23.746Z,5.33
2022-09-21T15:41:55.596Z,3.00
2022-09-21T15:44:23.715Z,5.07
2022-09-21T15:46:52.286Z,3.30
2022-09-21T15:49:22.608Z,2.20
2022-09-21T15:51:56.499Z,2.70
2022-09-21T15:54:32.301Z,2.40
2022-09-21T15:57:03.546Z,2.37
2022-09-21T15:59:33.290Z,3.20
2022-09-21T16:02:01.275Z,3.60
2022-09-21T16:04:28.735Z,4.40
2022-09-21T16:07:06.846Z,3.83
2022-09-21T16:09:39.464Z,9.53
2022-09-21T16:12:31.434Z,6.33
2022-09-21T16:15:05.703Z,6.37
2022-09-21T16:17:36.455Z,4.87
2022-09-21T16:20:10.672Z,5.90
2022-09-21T16:22:39.490Z,4.73
2022-09-21T16:25:27.299Z,3.90
2022-09-21T16:28:05.486Z,3.70
2022-09-21T16:30:41.551Z,3.10
2022-09-21T16:33:27.129Z,3.00
2022-09-21T16:35:55.285Z,4.83
2022-09-21T16:38:23.520Z,4.57
2022-09-21T16:40:54.141Z,6.00
2022-09-21T16:43:23.447Z,8.70
2022-09-21T16:45:50.406Z,12.10
2022-09-21T16:48:17.234Z,11.47
2022-09-21T16:50:44.183Z,11.73
2022-09-21T16:53:10.968Z,8.87
2022-09-21T16:55:37.809Z,5.87
2022-09-21T16:58:04.700Z,5.33
2022-09-21T17:00:33.167Z,9.43
2022-09-21T17:03:02.957Z,8.53
2022-09-21T17:05:29.795Z,8.73
2022-09-21T17:07:59.635Z,8.40
2022-09-21T17:10:34.820Z,12.17
2022-09-21T17:13:04.568Z,12.37
2022-09-21T17:15:32.508Z,11.63
2022-09-21T17:17:59.625Z,9.73
2022-09-21T17:20:36.964Z,10.83
2022-09-21T17:23:04.412Z,8.07
2022-09-21T17:25:32.949Z,9.40
2022-09-21T17:28:00.554Z,10.83
2022-09-21T17:30:27.400Z,10.47
2022-09-21T17:32:54.834Z,9.77
2022-09-21T17:35:31.226Z,12.50
2022-09-21T17:37:58.559Z,10.70
2022-09-21T17:40:26.427Z,10.67
2022-09-21T17:42:55.427Z,12.50
2022-09-21T17:45:22.412Z,11.20
2022-09-21T17:47:50.563Z,11.60
2022-09-21T17:50:20.392Z,16.53
2022-09-21T17:53:06.202Z,19.47
2022-09-21T17:55:33.168Z,15.37
2022-09-21T17:58:00.955Z,15.37
2022-09-21T18:00:53.772Z,9.60
2022-09-21T18:03:22.323Z,8.83
2022-09-21T18:05:50.927Z,9.07
2022-09-21T18:08:18.370Z,9.17
2022-09-21T18:10:49.174Z,8.97
2022-09-21T18:13:16.154Z,7.67
2022-09-21T18:16:10.506Z,8.53
2022-09-21T18:18:43.685Z,8.60
2022-09-21T18:21:17.084Z,7.67
2022-09-21T18:23:50.251Z,7.20
2022-09-21T18:26:18.304Z,5.83
2022-09-21T18:28:46.203Z,5.03
2022-09-21T18:31:29.240Z,4.10
2022-09-21T18:33:56.974Z,4.83
2022-09-21T18:36:31.927Z,5.93
2022-09-21T18:39:01.640Z,14.43
2022-09-21T18:41:34.340Z,16.33
2022-09-21T18:44:03.302Z,7.10
2022-09-21T18:46:32.967Z,5.67
2022-09-21T18:49:05.769Z,5.20
2022-09-21T18:51:32.752Z,9.77
2022-09-21T18:54:00.722Z,9.20
2022-09-21T18:56:31.381Z,6.60
2022-09-21T18:58:58.580Z,6.47
2022-09-21T19:01:27.033Z,9.93
2022-09-21T19:03:54.133Z,6.47
2022-09-21T19:06:29.763Z,6.17
2022-09-21T19:09:02.483Z,4.53
2022-09-21T19:11:34.961Z,4.77
2022-09-21T19:14:12.266Z,5.03
2022-09-21T19:16:57.298Z,4.60
2022-09-21T19:19:36.708Z,5.47
2022-09-21T19:22:03.531Z,6.03
2022-09-21T19:24:30.768Z,5.33
2022-09-21T19:27:00.810Z,4.93
2022-09-21T19:29:39.596Z,5.17
2022-09-21T19:32:23.280Z,7.47
2022-09-21T19:34:51.198Z,9.13
2022-09-21T19:37:18.133Z,9.50
2022-09-21T19:39:45.098Z,9.53
2022-09-21T19:42:29.852Z,10.87
2022-09-21T19:45:17.360Z,10.40
2022-09-21T19:47:49.700Z,12.53
2022-09-21T19:50:18.276Z,8.60
2022-09-21T19:52:45.438Z,7.50
2022-09-21T19:55:32.461Z,6.47
2022-09-21T19:58:18.202Z,5.23
2022-09-21T20:00:46.370Z,5.90
2022-09-21T20:03:36.415Z,7.53
2022-09-21T20:06:12.142Z,7.23
2022-09-21T20:08:39.306Z,7.23
2022-09-21T20:11:10.595Z,7.47
2022-09-21T20:13:50.027Z,6.57
2022-09-21T20:16:31.462Z,9.77
2022-09-21T20:19:19.109Z,10.67
2022-09-21T20:21:48.073Z,7.00
2022-09-21T20:24:41.686Z,7.90
2022-09-21T20:27:30.085Z,6.27
2022-09-21T20:29:57.326Z,5.60
2022-09-21T20:32:25.175Z,5.93
2022-09-21T20:34:52.640Z,6.17
2022-09-21T20:37:19.882Z,6.43
2022-09-21T20:39:47.631Z,5.63
2022-09-21T20:42:25.649Z,6.27
2022-09-21T20:44:53.448Z,5.63
2022-09-21T20:47:21.560Z,4.87
2022-09-21T20:49:49.113Z,5.07
2022-09-21T20:52:18.104Z,5.13
2022-09-21T20:54:49.084Z,6.10
2022-09-21T20:57:17.398Z,5.63
2022-09-21T20:59:45.357Z,6.27
2022-09-21T21:02:13.728Z,8.23
2022-09-21T21:04:41.695Z,6.30
2022-09-21T21:07:09.339Z,5.57
2022-09-21T21:09:37.080Z,5.07
2022-09-21T21:12:04.683Z,4.57
2022-09-21T21:14:31.721Z,4.70
2022-09-21T21:16:59.998Z,4.73
2022-09-21T21:19:28.192Z,4.77
2022-09-21T21:21:55.282Z,5.47
2022-09-21T21:24:40.456Z,6.50
2022-09-21T21:27:18.326Z,6.33
2022-09-21T21:29:51.900Z,5.77
2022-09-21T21:32:20.040Z,6.10
2022-09-21T21:34:47.034Z,5.30
2022-09-21T21:37:14.294Z,4.37
2022-09-21T21:39:41.076Z,10.40
2022-09-21T21:42:07.915Z,6.30
2022-09-21T21:44:34.958Z,13.33
2022-09-21T21:47:15.401Z,5.40
2022-09-21T21:49:48.836Z,4.53
2022-09-21T21:52:16.199Z,4.43
2022-09-21T21:54:43.079Z,3.97
2022-09-21T21:57:10.270Z,4.33
2022-09-21T21:59:37.263Z,4.30
2022-09-21T22:02:05.016Z,5.07
2022-09-21T22:04:32.291Z,5.73
2022-09-21T22:06:59.219Z,4.80
2022-09-21T22:09:26.138Z,5.37
2022-09-21T22:11:53.097Z,5.40
2022-09-21T22:14:20.352Z,5.00
2022-09-21T22:16:47.145Z,7.00
2022-09-21T22:19:14.050Z,8.60
2022-09-21T22:21:42.086Z,6.77
2022-09-21T22:24:09.591Z,9.73
2022-09-21T22:26:38.131Z,8.70
2022-09-21T22:29:05.930Z,5.97
2022-09-21T22:31:37.812Z,6.23
2022-09-21T22:34:05.578Z,6.50
2022-09-21T22:36:33.348Z,9.23
2022-09-21T22:39:00.418Z,15.73
2022-09-21T22:41:30.760Z,6.67
2022-09-21T22:43:58.567Z,13.97
2022-09-21T22:46:26.394Z,8.33
2022-09-21T22:48:53.200Z,8.63
2022-09-21T22:51:20.409Z,7.20
2022-09-21T22:53:47.948Z,7.30
2022-09-21T22:56:16.210Z,6.00
2022-09-21T22:58:43.896Z,5.83
2022-09-21T23:01:12.024Z,5.70
2022-09-21T23:03:39.421Z,6.57
2022-09-21T23:06:07.316Z,7.10
2022-09-21T23:08:34.469Z,7.00
2022-09-21T23:11:08.944Z,7.00
2022-09-21T23:13:35.827Z,9.27
2022-09-21T23:16:06.336Z,14.70
2022-09-21T23:18:33.653Z,9.93
2022-09-21T23:21:02.054Z,5.77
2022-09-21T23:23:29.275Z,5.20
2022-09-21T23:26:05.354Z,6.33
2022-09-21T23:28:33.254Z,5.47
2022-09-21T23:31:00.939Z,5.77
2022-09-21T23:33:38.486Z,5.80
2022-09-21T23:36:06.341Z,4.40
2022-09-21T23:38:33.737Z,6.43
2022-09-21T23:41:04.361Z,6.07
2022-09-21T23:43:31.403Z,6.53
2022-09-21T23:45:58.314Z,6.90
2022-09-21T23:48:25.524Z,8.17
2022-09-21T23:50:52.554Z,8.07
2022-09-21T23:53:19.722Z,8.13
2022-09-21T23:55:46.851Z,8.07
2022-09-21T23:58:15.542Z,7.23
